sensor_id;sensor_type;location;lat;lon;timestamp;temperature;humidity
26621;DHT22;14253;44.840;10.444;2022-08-03T00:01:22;23.70;99.90
26621;DHT22;14253;44.840;10.444;2022-08-03T00:03:48;23.70;99.90
26621;DHT22;14253;44.840;10.444;2022-08-03T00:06:14;23.60;99.90
26621;DHT22;14253;44.840;10.444;2022-08-03T00:08:39;23.60;99.90
26621;DHT22;14253;44.840;10.444;2022-08-03T00:11:06;23.60;99.90
26621;DHT22;14253;44.840;10.444;2022-08-03T00:13:32;23.60;99.90
26621;DHT22;14253;44.840;10.444;2022-08-03T00:15:58;23.70;99.90
26621;DHT22;14253;44.840;10.444;2022-08-03T00:18:24;23.80;99.90
26621;DHT22;14253;44.840;10.444;2022-08-03T00:20:50;23.90;99.90
26621;DHT22;14253;44.840;10.444;2022-08-03T00:23:16;24.10;99.90
26621;DHT22;14253;44.840;10.444;2022-08-03T00:25:42;24.10;99.90
26621;DHT22;14253;44.840;10.444;2022-08-03T00:28:08;24.00;99.90
26621;DHT22;14253;44.840;10.444;2022-08-03T00:30:35;24.00;99.90
26621;DHT22;14253;44.840;10.444;2022-08-03T00:33:01;24.00;99.90
26621;DHT22;14253;44.840;10.444;2022-08-03T00:35:28;23.90;99.90
26621;DHT22;14253;44.840;10.444;2022-08-03T00:37:54;23.80;99.90
26621;DHT22;14253;44.840;10.444;2022-08-03T00:40:20;23.80;99.90
26621;DHT22;14253;44.840;10.444;2022-08-03T00:45:21;23.70;99.90
26621;DHT22;14253;44.840;10.444;2022-08-03T00:47:47;23.70;99.90
26621;DHT22;14253;44.840;10.444;2022-08-03T00:50:14;23.70;99.90
26621;DHT22;14253;44.840;10.444;2022-08-03T00:52:40;23.60;99.90
26621;DHT22;14253;44.840;10.444;2022-08-03T00:55:10;23.50;99.90
26621;DHT22;14253;44.840;10.444;2022-08-03T00:57:36;23.50;99.90
26621;DHT22;14253;44.840;10.444;2022-08-03T01:00:05;23.50;99.90
26621;DHT22;14253;44.840;10.444;2022-08-03T01:02:31;23.40;99.90
26621;DHT22;14253;44.840;10.444;2022-08-03T01:04:57;23.40;99.90
26621;DHT22;14253;44.840;10.444;2022-08-03T01:16:05;23.30;99.90
26621;DHT22;14253;44.840;10.444;2022-08-03T01:19:21;23.30;99.90
26621;DHT22;14253;44.840;10.444;2022-08-03T01:27:18;23.10;99.90
26621;DHT22;14253;44.840;10.444;2022-08-03T01:30:32;23.10;99.90
26621;DHT22;14253;44.840;10.444;2022-08-03T01:33:23;23.00;99.90
26621;DHT22;14253;44.840;10.444;2022-08-03T01:35:59;23.10;99.90
26621;DHT22;14253;44.840;10.444;2022-08-03T01:38:33;23.10;99.90
26621;DHT22;14253;44.840;10.444;2022-08-03T01:41:06;23.20;99.90
26621;DHT22;14253;44.840;10.444;2022-08-03T01:43:34;23.20;99.90
26621;DHT22;14253;44.840;10.444;2022-08-03T01:46:02;23.10;99.90
26621;DHT22;14253;44.840;10.444;2022-08-03T01:48:30;23.20;99.90
26621;DHT22;14253;44.840;10.444;2022-08-03T01:50:57;23.20;99.90
26621;DHT22;14253;44.840;10.444;2022-08-03T01:53:24;23.10;99.90
26621;DHT22;14253;44.840;10.444;2022-08-03T01:55:59;23.20;99.90
26621;DHT22;14253;44.840;10.444;2022-08-03T01:58:48;23.10;99.90
26621;DHT22;14253;44.840;10.444;2022-08-03T02:01:36;23.00;99.90
26621;DHT22;14253;44.840;10.444;2022-08-03T02:04:39;23.00;99.90
26621;DHT22;14253;44.840;10.444;2022-08-03T02:07:23;22.90;99.90
26621;DHT22;14253;44.840;10.444;2022-08-03T02:10:27;22.90;99.90
26621;DHT22;14253;44.840;10.444;2022-08-03T02:13:18;22.90;99.90
26621;DHT22;14253;44.840;10.444;2022-08-03T02:16:10;23.00;99.90
26621;DHT22;14253;44.840;10.444;2022-08-03T02:18:39;22.80;99.90
26621;DHT22;14253;44.840;10.444;2022-08-03T02:21:07;22.90;99.90
26621;DHT22;14253;44.840;10.444;2022-08-03T02:23:36;22.80;99.90
26621;DHT22;14253;44.840;10.444;2022-08-03T02:26:04;22.80;99.90
26621;DHT22;14253;44.840;10.444;2022-08-03T02:28:34;22.80;99.90
26621;DHT22;14253;44.840;10.444;2022-08-03T02:31:04;22.70;99.90
26621;DHT22;14253;44.840;10.444;2022-08-03T02:33:41;22.70;99.90
26621;DHT22;14253;44.840;10.444;2022-08-03T02:36:08;22.60;99.90
26621;DHT22;14253;44.840;10.444;2022-08-03T02:38:40;22.70;99.90
26621;DHT22;14253;44.840;10.444;2022-08-03T02:41:11;22.70;99.90
26621;DHT22;14253;44.840;10.444;2022-08-03T02:43:39;22.70;99.90
26621;DHT22;14253;44.840;10.444;2022-08-03T02:46:10;22.60;99.90
26621;DHT22;14253;44.840;10.444;2022-08-03T02:48:47;22.60;99.90
26621;DHT22;14253;44.840;10.444;2022-08-03T02:51:16;22.50;99.90
26621;DHT22;14253;44.840;10.444;2022-08-03T02:53:44;22.40;99.90
26621;DHT22;14253;44.840;10.444;2022-08-03T02:56:12;22.40;99.90
26621;DHT22;14253;44.840;10.444;2022-08-03T02:58:42;22.30;99.90
26621;DHT22;14253;44.840;10.444;2022-08-03T03:01:10;22.30;99.90
26621;DHT22;14253;44.840;10.444;2022-08-03T03:03:37;22.40;99.90
26621;DHT22;14253;44.840;10.444;2022-08-03T03:06:06;22.30;99.90
26621;DHT22;14253;44.840;10.444;2022-08-03T03:08:33;22.20;99.90
26621;DHT22;14253;44.840;10.444;2022-08-03T03:11:01;22.10;99.90
26621;DHT22;14253;44.840;10.444;2022-08-03T03:13:28;22.00;99.90
26621;DHT22;14253;44.840;10.444;2022-08-03T03:15:59;22.00;99.90
26621;DHT22;14253;44.840;10.444;2022-08-03T03:18:27;22.10;99.90
26621;DHT22;14253;44.840;10.444;2022-08-03T03:20:54;22.20;99.90
26621;DHT22;14253;44.840;10.444;2022-08-03T03:23:22;22.20;99.90
26621;DHT22;14253;44.840;10.444;2022-08-03T03:25:50;22.30;99.90
26621;DHT22;14253;44.840;10.444;2022-08-03T03:28:17;22.20;99.90
26621;DHT22;14253;44.840;10.444;2022-08-03T03:30:44;21.90;1.00
26621;DHT22;14253;44.840;10.444;2022-08-03T03:33:11;21.70;1.00
26621;DHT22;14253;44.840;10.444;2022-08-03T03:35:39;21.70;1.00
26621;DHT22;14253;44.840;10.444;2022-08-03T03:38:06;21.80;1.00
26621;DHT22;14253;44.840;10.444;2022-08-03T03:40:33;22.00;1.00
26621;DHT22;14253;44.840;10.444;2022-08-03T03:43:00;22.00;1.00
26621;DHT22;14253;44.840;10.444;2022-08-03T03:45:26;22.10;1.00
26621;DHT22;14253;44.840;10.444;2022-08-03T03:47:52;22.00;99.90
26621;DHT22;14253;44.840;10.444;2022-08-03T03:50:20;22.00;1.00
26621;DHT22;14253;44.840;10.444;2022-08-03T03:52:48;22.00;1.00
26621;DHT22;14253;44.840;10.444;2022-08-03T03:55:16;22.00;1.00
26621;DHT22;14253;44.840;10.444;2022-08-03T03:57:47;22.00;1.00
26621;DHT22;14253;44.840;10.444;2022-08-03T04:00:27;22.00;99.90
26621;DHT22;14253;44.840;10.444;2022-08-03T04:03:03;22.10;99.90
26621;DHT22;14253;44.840;10.444;2022-08-03T04:05:29;22.20;99.90
26621;DHT22;14253;44.840;10.444;2022-08-03T04:08:16;22.20;99.90
26621;DHT22;14253;44.840;10.444;2022-08-03T04:11:20;22.20;99.90
26621;DHT22;14253;44.840;10.444;2022-08-03T04:14:04;22.20;99.90
26621;DHT22;14253;44.840;10.444;2022-08-03T04:16:37;22.10;99.90
26621;DHT22;14253;44.840;10.444;2022-08-03T04:19:09;22.10;99.90
26621;DHT22;14253;44.840;10.444;2022-08-03T04:21:39;22.10;99.90
26621;DHT22;14253;44.840;10.444;2022-08-03T04:24:08;22.10;99.90
26621;DHT22;14253;44.840;10.444;2022-08-03T04:26:38;22.10;99.90
26621;DHT22;14253;44.840;10.444;2022-08-03T04:29:05;22.00;99.90
26621;DHT22;14253;44.840;10.444;2022-08-03T04:31:34;22.10;99.90
26621;DHT22;14253;44.840;10.444;2022-08-03T04:34:00;22.10;99.90
26621;DHT22;14253;44.840;10.444;2022-08-03T04:36:31;22.00;99.90
26621;DHT22;14253;44.840;10.444;2022-08-03T04:39:15;22.10;99.90
26621;DHT22;14253;44.840;10.444;2022-08-03T04:41:42;22.00;99.90
26621;DHT22;14253;44.840;10.444;2022-08-03T04:44:10;22.00;99.90
26621;DHT22;14253;44.840;10.444;2022-08-03T04:46:38;22.00;99.90
26621;DHT22;14253;44.840;10.444;2022-08-03T04:49:08;22.00;99.90
26621;DHT22;14253;44.840;10.444;2022-08-03T04:51:37;22.00;99.90
26621;DHT22;14253;44.840;10.444;2022-08-03T04:54:05;22.10;99.90
26621;DHT22;14253;44.840;10.444;2022-08-03T04:56:32;22.20;99.90
26621;DHT22;14253;44.840;10.444;2022-08-03T04:58:59;22.20;99.90
26621;DHT22;14253;44.840;10.444;2022-08-03T05:01:25;22.20;99.90
26621;DHT22;14253;44.840;10.444;2022-08-03T05:03:51;22.10;99.90
26621;DHT22;14253;44.840;10.444;2022-08-03T05:06:17;22.10;99.90
26621;DHT22;14253;44.840;10.444;2022-08-03T05:08:42;22.20;99.90
26621;DHT22;14253;44.840;10.444;2022-08-03T05:11:08;22.30;99.90
26621;DHT22;14253;44.840;10.444;2022-08-03T05:13:34;22.40;99.90
26621;DHT22;14253;44.840;10.444;2022-08-03T05:16:00;22.50;99.90
26621;DHT22;14253;44.840;10.444;2022-08-03T05:18:26;22.60;99.90
26621;DHT22;14253;44.840;10.444;2022-08-03T05:20:52;22.60;99.90
26621;DHT22;14253;44.840;10.444;2022-08-03T05:23:18;22.70;99.90
26621;DHT22;14253;44.840;10.444;2022-08-03T05:25:44;22.70;99.90
26621;DHT22;14253;44.840;10.444;2022-08-03T05:28:10;22.80;99.90
26621;DHT22;14253;44.840;10.444;2022-08-03T05:30:36;22.80;99.90
26621;DHT22;14253;44.840;10.444;2022-08-03T05:33:03;22.90;99.90
26621;DHT22;14253;44.840;10.444;2022-08-03T05:35:30;23.00;99.90
26621;DHT22;14253;44.840;10.444;2022-08-03T05:37:56;23.10;99.90
26621;DHT22;14253;44.840;10.444;2022-08-03T05:40:22;23.20;99.90
26621;DHT22;14253;44.840;10.444;2022-08-03T05:42:49;23.20;99.90
26621;DHT22;14253;44.840;10.444;2022-08-03T05:45:15;23.30;99.90
26621;DHT22;14253;44.840;10.444;2022-08-03T05:47:44;23.50;99.90
26621;DHT22;14253;44.840;10.444;2022-08-03T05:50:11;23.60;99.90
26621;DHT22;14253;44.840;10.444;2022-08-03T05:52:39;23.70;99.90
26621;DHT22;14253;44.840;10.444;2022-08-03T05:55:09;23.70;99.90
26621;DHT22;14253;44.840;10.444;2022-08-03T05:57:36;23.70;99.90
26621;DHT22;14253;44.840;10.444;2022-08-03T06:00:10;23.80;99.90
26621;DHT22;14253;44.840;10.444;2022-08-03T06:02:39;23.80;99.90
26621;DHT22;14253;44.840;10.444;2022-08-03T06:05:05;23.80;99.90
26621;DHT22;14253;44.840;10.444;2022-08-03T06:07:32;23.90;99.90
26621;DHT22;14253;44.840;10.444;2022-08-03T06:09:58;23.90;99.90
26621;DHT22;14253;44.840;10.444;2022-08-03T06:12:26;23.90;99.90
26621;DHT22;14253;44.840;10.444;2022-08-03T06:14:54;24.00;99.90
26621;DHT22;14253;44.840;10.444;2022-08-03T06:17:24;24.00;99.90
26621;DHT22;14253;44.840;10.444;2022-08-03T06:19:53;24.10;99.90
26621;DHT22;14253;44.840;10.444;2022-08-03T06:22:19;24.20;99.90
26621;DHT22;14253;44.840;10.444;2022-08-03T06:24:45;24.30;99.90
26621;DHT22;14253;44.840;10.444;2022-08-03T06:27:11;24.30;99.90
26621;DHT22;14253;44.840;10.444;2022-08-03T06:29:37;24.40;99.90
26621;DHT22;14253;44.840;10.444;2022-08-03T06:32:04;24.50;99.90
26621;DHT22;14253;44.840;10.444;2022-08-03T06:34:30;24.60;99.90
26621;DHT22;14253;44.840;10.444;2022-08-03T06:36:55;24.80;99.90
26621;DHT22;14253;44.840;10.444;2022-08-03T06:39:22;25.10;99.90
26621;DHT22;14253;44.840;10.444;2022-08-03T06:41:48;25.60;99.90
26621;DHT22;14253;44.840;10.444;2022-08-03T06:44:14;25.90;99.90
26621;DHT22;14253;44.840;10.444;2022-08-03T06:46:58;26.00;99.90
26621;DHT22;14253;44.840;10.444;2022-08-03T06:49:24;26.50;99.90
26621;DHT22;14253;44.840;10.444;2022-08-03T06:51:50;26.70;99.90
26621;DHT22;14253;44.840;10.444;2022-08-03T06:54:18;26.90;99.90
26621;DHT22;14253;44.840;10.444;2022-08-03T06:56:47;27.30;99.90
26621;DHT22;14253;44.840;10.444;2022-08-03T06:59:13;27.30;99.90
26621;DHT22;14253;44.840;10.444;2022-08-03T07:01:41;27.80;99.90
26621;DHT22;14253;44.840;10.444;2022-08-03T07:04:07;28.40;99.90
26621;DHT22;14253;44.840;10.444;2022-08-03T07:06:33;28.60;99.90
26621;DHT22;14253;44.840;10.444;2022-08-03T07:09:00;28.70;99.90
26621;DHT22;14253;44.840;10.444;2022-08-03T07:11:26;29.00;99.90
26621;DHT22;14253;44.840;10.444;2022-08-03T07:13:53;29.20;99.90
26621;DHT22;14253;44.840;10.444;2022-08-03T07:16:19;29.20;99.90
26621;DHT22;14253;44.840;10.444;2022-08-03T07:18:45;29.50;99.90
26621;DHT22;14253;44.840;10.444;2022-08-03T07:21:11;29.60;99.90
26621;DHT22;14253;44.840;10.444;2022-08-03T07:23:37;29.60;99.90
26621;DHT22;14253;44.840;10.444;2022-08-03T07:26:04;29.70;99.90
26621;DHT22;14253;44.840;10.444;2022-08-03T07:28:30;30.00;99.90
26621;DHT22;14253;44.840;10.444;2022-08-03T07:30:56;30.10;99.90
26621;DHT22;14253;44.840;10.444;2022-08-03T07:33:22;30.10;99.90
26621;DHT22;14253;44.840;10.444;2022-08-03T07:35:48;30.20;99.90
26621;DHT22;14253;44.840;10.444;2022-08-03T07:38:13;30.40;99.90
26621;DHT22;14253;44.840;10.444;2022-08-03T07:40:40;30.50;99.90
26621;DHT22;14253;44.840;10.444;2022-08-03T07:43:06;30.70;99.90
26621;DHT22;14253;44.840;10.444;2022-08-03T07:45:32;31.00;99.90
26621;DHT22;14253;44.840;10.444;2022-08-03T07:47:58;31.00;99.90
26621;DHT22;14253;44.840;10.444;2022-08-03T07:50:24;31.10;99.90
26621;DHT22;14253;44.840;10.444;2022-08-03T07:52:51;31.40;99.90
26621;DHT22;14253;44.840;10.444;2022-08-03T07:55:33;31.40;99.90
26621;DHT22;14253;44.840;10.444;2022-08-03T07:58:09;31.60;99.90
26621;DHT22;14253;44.840;10.444;2022-08-03T08:00:37;31.50;99.90
26621;DHT22;14253;44.840;10.444;2022-08-03T08:03:03;31.50;99.90
26621;DHT22;14253;44.840;10.444;2022-08-03T08:05:31;31.40;99.90
26621;DHT22;14253;44.840;10.444;2022-08-03T08:08:00;31.60;99.90
26621;DHT22;14253;44.840;10.444;2022-08-03T08:10:27;31.90;99.90
26621;DHT22;14253;44.840;10.444;2022-08-03T08:12:54;31.90;99.90
26621;DHT22;14253;44.840;10.444;2022-08-03T08:15:20;32.00;99.90
26621;DHT22;14253;44.840;10.444;2022-08-03T08:17:51;32.30;99.90
26621;DHT22;14253;44.840;10.444;2022-08-03T08:20:20;32.40;99.90
26621;DHT22;14253;44.840;10.444;2022-08-03T08:23:07;32.50;99.90
26621;DHT22;14253;44.840;10.444;2022-08-03T08:25:33;32.60;99.90
26621;DHT22;14253;44.840;10.444;2022-08-03T08:28:00;32.70;99.90
26621;DHT22;14253;44.840;10.444;2022-08-03T08:30:27;32.60;99.90
26621;DHT22;14253;44.840;10.444;2022-08-03T08:32:53;32.70;99.90
26621;DHT22;14253;44.840;10.444;2022-08-03T08:35:19;32.60;99.90
26621;DHT22;14253;44.840;10.444;2022-08-03T08:37:46;32.50;99.90
26621;DHT22;14253;44.840;10.444;2022-08-03T08:40:12;32.60;99.90
26621;DHT22;14253;44.840;10.444;2022-08-03T08:42:40;32.80;99.90
26621;DHT22;14253;44.840;10.444;2022-08-03T08:45:07;32.90;99.90
26621;DHT22;14253;44.840;10.444;2022-08-03T08:47:37;33.00;99.90
26621;DHT22;14253;44.840;10.444;2022-08-03T08:50:03;33.20;99.90
26621;DHT22;14253;44.840;10.444;2022-08-03T08:52:30;33.40;99.90
26621;DHT22;14253;44.840;10.444;2022-08-03T08:54:59;33.40;99.90
26621;DHT22;14253;44.840;10.444;2022-08-03T08:57:31;33.30;99.90
26621;DHT22;14253;44.840;10.444;2022-08-03T08:59:58;33.30;99.90
26621;DHT22;14253;44.840;10.444;2022-08-03T09:02:29;33.40;99.90
26621;DHT22;14253;44.840;10.444;2022-08-03T09:04:57;33.40;99.90
26621;DHT22;14253;44.840;10.444;2022-08-03T09:07:24;33.60;99.90
26621;DHT22;14253;44.840;10.444;2022-08-03T09:09:50;33.80;99.90
26621;DHT22;14253;44.840;10.444;2022-08-03T09:12:16;34.00;99.90
26621;DHT22;14253;44.840;10.444;2022-08-03T09:14:42;34.10;99.90
26621;DHT22;14253;44.840;10.444;2022-08-03T09:17:07;34.00;99.90
26621;DHT22;14253;44.840;10.444;2022-08-03T09:19:34;34.00;99.90
26621;DHT22;14253;44.840;10.444;2022-08-03T09:22:09;33.70;99.90
26621;DHT22;14253;44.840;10.444;2022-08-03T09:24:36;33.60;99.90
26621;DHT22;14253;44.840;10.444;2022-08-03T09:27:06;33.60;99.90
26621;DHT22;14253;44.840;10.444;2022-08-03T09:29:35;34.00;99.90
26621;DHT22;14253;44.840;10.444;2022-08-03T09:32:02;34.00;99.90
26621;DHT22;14253;44.840;10.444;2022-08-03T09:34:29;33.80;99.90
26621;DHT22;14253;44.840;10.444;2022-08-03T09:36:56;33.70;99.90
26621;DHT22;14253;44.840;10.444;2022-08-03T09:39:26;33.70;99.90
26621;DHT22;14253;44.840;10.444;2022-08-03T09:42:11;33.80;99.90
26621;DHT22;14253;44.840;10.444;2022-08-03T09:44:38;34.10;99.90
26621;DHT22;14253;44.840;10.444;2022-08-03T09:47:07;34.10;99.90
26621;DHT22;14253;44.840;10.444;2022-08-03T09:49:38;34.20;99.90
26621;DHT22;14253;44.840;10.444;2022-08-03T09:52:15;34.10;99.90
26621;DHT22;14253;44.840;10.444;2022-08-03T09:54:43;34.30;99.90
26621;DHT22;14253;44.840;10.444;2022-08-03T09:57:25;34.50;99.90
26621;DHT22;14253;44.840;10.444;2022-08-03T09:59:52;34.80;99.90
26621;DHT22;14253;44.840;10.444;2022-08-03T10:02:26;34.90;99.90
26621;DHT22;14253;44.840;10.444;2022-08-03T10:04:53;34.90;99.90
26621;DHT22;14253;44.840;10.444;2022-08-03T10:07:21;34.90;99.90
26621;DHT22;14253;44.840;10.444;2022-08-03T10:10:00;35.00;99.90
26621;DHT22;14253;44.840;10.444;2022-08-03T10:12:27;35.00;99.90
26621;DHT22;14253;44.840;10.444;2022-08-03T10:14:54;34.90;99.90
26621;DHT22;14253;44.840;10.444;2022-08-03T10:17:21;35.00;99.90
26621;DHT22;14253;44.840;10.444;2022-08-03T10:19:48;35.00;99.90
26621;DHT22;14253;44.840;10.444;2022-08-03T10:22:21;34.80;99.90
26621;DHT22;14253;44.840;10.444;2022-08-03T10:25:08;34.60;99.90
26621;DHT22;14253;44.840;10.444;2022-08-03T10:27:37;34.80;99.90
26621;DHT22;14253;44.840;10.444;2022-08-03T10:30:06;34.80;99.90
26621;DHT22;14253;44.840;10.444;2022-08-03T10:35:14;35.20;99.90
26621;DHT22;14253;44.840;10.444;2022-08-03T10:37:43;35.00;99.90
26621;DHT22;14253;44.840;10.444;2022-08-03T10:40:13;35.20;99.90
26621;DHT22;14253;44.840;10.444;2022-08-03T10:42:42;35.10;99.90
26621;DHT22;14253;44.840;10.444;2022-08-03T10:45:18;35.10;99.90
26621;DHT22;14253;44.840;10.444;2022-08-03T10:47:48;35.30;99.90
26621;DHT22;14253;44.840;10.444;2022-08-03T10:50:15;35.40;99.90
26621;DHT22;14253;44.840;10.444;2022-08-03T10:53:02;35.70;99.90
26621;DHT22;14253;44.840;10.444;2022-08-03T10:55:39;35.70;99.90
26621;DHT22;14253;44.840;10.444;2022-08-03T10:58:50;35.70;99.90
26621;DHT22;14253;44.840;10.444;2022-08-03T11:01:17;35.60;99.90
26621;DHT22;14253;44.840;10.444;2022-08-03T11:06:20;35.40;99.90
26621;DHT22;14253;44.840;10.444;2022-08-03T11:08:48;35.40;99.90
26621;DHT22;14253;44.840;10.444;2022-08-03T11:14:12;35.80;99.90
26621;DHT22;14253;44.840;10.444;2022-08-03T11:16:41;35.90;99.90
26621;DHT22;14253;44.840;10.444;2022-08-03T11:19:12;36.00;99.90
26621;DHT22;14253;44.840;10.444;2022-08-03T11:48:34;36.20;99.90
26621;DHT22;14253;44.840;10.444;2022-08-03T11:51:05;35.60;99.90
26621;DHT22;14253;44.840;10.444;2022-08-03T11:53:32;35.40;99.90
26621;DHT22;14253;44.840;10.444;2022-08-03T11:56:00;35.60;99.90
26621;DHT22;14253;44.840;10.444;2022-08-03T11:58:28;35.70;99.90
26621;DHT22;14253;44.840;10.444;2022-08-03T12:01:04;35.60;99.90
26621;DHT22;14253;44.840;10.444;2022-08-03T12:03:34;35.50;99.90
26621;DHT22;14253;44.840;10.444;2022-08-03T12:06:00;35.40;99.90
26621;DHT22;14253;44.840;10.444;2022-08-03T12:08:29;35.60;99.90
26621;DHT22;14253;44.840;10.444;2022-08-03T12:10:57;35.90;99.90
26621;DHT22;14253;44.840;10.444;2022-08-03T12:13:23;36.10;99.90
26621;DHT22;14253;44.840;10.444;2022-08-03T12:15:55;35.70;99.90
26621;DHT22;14253;44.840;10.444;2022-08-03T12:18:23;35.60;99.90
26621;DHT22;14253;44.840;10.444;2022-08-03T12:20:51;35.70;99.90
26621;DHT22;14253;44.840;10.444;2022-08-03T12:23:18;35.90;99.90
26621;DHT22;14253;44.840;10.444;2022-08-03T12:25:46;36.00;99.90
26621;DHT22;14253;44.840;10.444;2022-08-03T12:28:17;35.90;99.90
26621;DHT22;14253;44.840;10.444;2022-08-03T12:30:50;36.20;99.90
26621;DHT22;14253;44.840;10.444;2022-08-03T12:33:19;36.30;99.90
26621;DHT22;14253;44.840;10.444;2022-08-03T12:35:47;36.30;99.90
26621;DHT22;14253;44.840;10.444;2022-08-03T12:38:19;36.10;99.90
26621;DHT22;14253;44.840;10.444;2022-08-03T12:40:59;36.30;99.90
26621;DHT22;14253;44.840;10.444;2022-08-03T12:43:25;36.10;99.90
26621;DHT22;14253;44.840;10.444;2022-08-03T12:46:08;36.10;99.90
26621;DHT22;14253;44.840;10.444;2022-08-03T12:48:35;36.30;99.90
26621;DHT22;14253;44.840;10.444;2022-08-03T12:51:10;36.40;99.90
26621;DHT22;14253;44.840;10.444;2022-08-03T12:53:37;36.60;99.90
26621;DHT22;14253;44.840;10.444;2022-08-03T12:56:05;36.70;99.90
26621;DHT22;14253;44.840;10.444;2022-08-03T12:58:33;36.80;99.90
26621;DHT22;14253;44.840;10.444;2022-08-03T13:01:00;36.90;99.90
26621;DHT22;14253;44.840;10.444;2022-08-03T13:03:41;36.90;99.90
26621;DHT22;14253;44.840;10.444;2022-08-03T13:06:14;37.00;99.90
26621;DHT22;14253;44.840;10.444;2022-08-03T13:08:41;36.90;99.90
26621;DHT22;14253;44.840;10.444;2022-08-03T13:13:43;36.80;99.90
26621;DHT22;14253;44.840;10.444;2022-08-03T13:16:09;36.70;99.90
26621;DHT22;14253;44.840;10.444;2022-08-03T13:18:35;36.70;99.90
26621;DHT22;14253;44.840;10.444;2022-08-03T13:21:01;36.80;99.90
26621;DHT22;14253;44.840;10.444;2022-08-03T13:23:27;37.00;99.90
26621;DHT22;14253;44.840;10.444;2022-08-03T13:25:53;36.80;99.90
26621;DHT22;14253;44.840;10.444;2022-08-03T13:28:19;36.90;99.90
26621;DHT22;14253;44.840;10.444;2022-08-03T13:30:45;36.90;99.90
26621;DHT22;14253;44.840;10.444;2022-08-03T13:33:11;36.90;99.90
26621;DHT22;14253;44.840;10.444;2022-08-03T13:35:37;36.80;99.90
26621;DHT22;14253;44.840;10.444;2022-08-03T13:38:03;36.70;99.90
26621;DHT22;14253;44.840;10.444;2022-08-03T13:40:29;37.00;99.90
26621;DHT22;14253;44.840;10.444;2022-08-03T13:42:56;37.10;99.90
26621;DHT22;14253;44.840;10.444;2022-08-03T13:45:23;37.20;99.90
26621;DHT22;14253;44.840;10.444;2022-08-03T13:47:49;37.50;99.90
26621;DHT22;14253;44.840;10.444;2022-08-03T13:50:15;37.60;99.90
26621;DHT22;14253;44.840;10.444;2022-08-03T13:52:41;37.60;99.90
26621;DHT22;14253;44.840;10.444;2022-08-03T13:55:11;37.40;99.90
26621;DHT22;14253;44.840;10.444;2022-08-03T13:57:38;37.50;99.90
26621;DHT22;14253;44.840;10.444;2022-08-03T14:00:06;37.40;99.90
26621;DHT22;14253;44.840;10.444;2022-08-03T14:02:35;37.40;99.90
26621;DHT22;14253;44.840;10.444;2022-08-03T14:05:09;37.40;99.90
26621;DHT22;14253;44.840;10.444;2022-08-03T14:07:44;37.30;99.90
26621;DHT22;14253;44.840;10.444;2022-08-03T14:10:10;36.80;99.90
26621;DHT22;14253;44.840;10.444;2022-08-03T14:12:36;36.60;99.90
26621;DHT22;14253;44.840;10.444;2022-08-03T14:15:02;36.70;99.90
26621;DHT22;14253;44.840;10.444;2022-08-03T14:17:28;36.50;99.90
26621;DHT22;14253;44.840;10.444;2022-08-03T14:19:54;36.80;99.90
26621;DHT22;14253;44.840;10.444;2022-08-03T14:22:20;36.90;99.90
26621;DHT22;14253;44.840;10.444;2022-08-03T14:24:46;37.30;99.90
26621;DHT22;14253;44.840;10.444;2022-08-03T14:27:12;37.20;99.90
26621;DHT22;14253;44.840;10.444;2022-08-03T14:29:38;37.20;99.90
26621;DHT22;14253;44.840;10.444;2022-08-03T14:32:04;37.00;99.90
26621;DHT22;14253;44.840;10.444;2022-08-03T14:34:30;36.70;99.90
26621;DHT22;14253;44.840;10.444;2022-08-03T14:36:56;36.80;99.90
26621;DHT22;14253;44.840;10.444;2022-08-03T14:39:22;36.90;99.90
26621;DHT22;14253;44.840;10.444;2022-08-03T14:41:48;37.00;99.90
26621;DHT22;14253;44.840;10.444;2022-08-03T14:44:14;37.10;99.90
26621;DHT22;14253;44.840;10.444;2022-08-03T14:46:40;37.20;99.90
26621;DHT22;14253;44.840;10.444;2022-08-03T14:49:06;37.10;99.90
26621;DHT22;14253;44.840;10.444;2022-08-03T14:51:32;37.10;99.90
26621;DHT22;14253;44.840;10.444;2022-08-03T14:53:58;37.20;99.90
26621;DHT22;14253;44.840;10.444;2022-08-03T14:56:24;37.30;99.90
26621;DHT22;14253;44.840;10.444;2022-08-03T14:58:50;37.50;99.90
26621;DHT22;14253;44.840;10.444;2022-08-03T15:01:39;37.40;99.90
26621;DHT22;14253;44.840;10.444;2022-08-03T15:04:05;37.40;99.90
26621;DHT22;14253;44.840;10.444;2022-08-03T15:06:31;37.30;99.90
26621;DHT22;14253;44.840;10.444;2022-08-03T15:08:57;37.00;99.90
26621;DHT22;14253;44.840;10.444;2022-08-03T15:11:23;37.10;99.90
26621;DHT22;14253;44.840;10.444;2022-08-03T15:13:49;37.10;99.90
26621;DHT22;14253;44.840;10.444;2022-08-03T15:16:15;37.00;99.90
26621;DHT22;14253;44.840;10.444;2022-08-03T15:18:41;37.10;99.90
26621;DHT22;14253;44.840;10.444;2022-08-03T15:21:06;37.10;99.90
26621;DHT22;14253;44.840;10.444;2022-08-03T15:23:32;37.10;99.90
26621;DHT22;14253;44.840;10.444;2022-08-03T15:25:58;37.20;99.90
26621;DHT22;14253;44.840;10.444;2022-08-03T15:28:24;37.60;99.90
26621;DHT22;14253;44.840;10.444;2022-08-03T15:30:51;37.70;99.90
26621;DHT22;14253;44.840;10.444;2022-08-03T15:33:17;37.80;99.90
26621;DHT22;14253;44.840;10.444;2022-08-03T15:35:43;37.60;99.90
26621;DHT22;14253;44.840;10.444;2022-08-03T15:38:11;37.90;99.90
26621;DHT22;14253;44.840;10.444;2022-08-03T15:40:37;38.20;99.90
26621;DHT22;14253;44.840;10.444;2022-08-03T15:43:03;38.30;99.90
26621;DHT22;14253;44.840;10.444;2022-08-03T15:45:30;38.40;99.90
26621;DHT22;14253;44.840;10.444;2022-08-03T15:47:58;38.40;99.90
26621;DHT22;14253;44.840;10.444;2022-08-03T15:50:30;38.40;99.90
26621;DHT22;14253;44.840;10.444;2022-08-03T15:52:57;38.70;99.90
26621;DHT22;14253;44.840;10.444;2022-08-03T15:55:24;39.00;99.90
26621;DHT22;14253;44.840;10.444;2022-08-03T15:57:52;39.10;99.90
26621;DHT22;14253;44.840;10.444;2022-08-03T16:00:19;39.40;99.90
26621;DHT22;14253;44.840;10.444;2022-08-03T16:02:45;39.90;99.90
26621;DHT22;14253;44.840;10.444;2022-08-03T16:05:11;40.30;99.90
26621;DHT22;14253;44.840;10.444;2022-08-03T16:07:43;40.30;99.90
26621;DHT22;14253;44.840;10.444;2022-08-03T16:10:17;40.20;99.90
26621;DHT22;14253;44.840;10.444;2022-08-03T16:12:46;39.90;99.90
26621;DHT22;14253;44.840;10.444;2022-08-03T16:15:18;39.90;99.90
26621;DHT22;14253;44.840;10.444;2022-08-03T16:17:45;40.10;99.90
26621;DHT22;14253;44.840;10.444;2022-08-03T16:20:12;40.20;99.90
26621;DHT22;14253;44.840;10.444;2022-08-03T16:22:46;40.30;99.90
26621;DHT22;14253;44.840;10.444;2022-08-03T16:25:15;40.40;99.90